sensor_id;sensor_type;location;lat;lon;timestamp;temperature;humidity
43810;DHT22;29440;48.208;11.162;2022-12-07T00:00:49;2.90;99.90
43810;DHT22;29440;48.208;11.162;2022-12-07T00:03:14;3.00;99.90
43810;DHT22;29440;48.208;11.162;2022-12-07T00:05:40;3.00;99.90
43810;DHT22;29440;48.208;11.162;2022-12-07T00:08:06;2.90;99.90
43810;DHT22;29440;48.208;11.162;2022-12-07T00:10:33;2.90;99.90
43810;DHT22;29440;48.208;11.162;2022-12-07T00:12:59;2.90;99.90
43810;DHT22;29440;48.208;11.162;2022-12-07T00:15:24;3.00;99.90
43810;DHT22;29440;48.208;11.162;2022-12-07T00:17:50;2.90;99.90
43810;DHT22;29440;48.208;11.162;2022-12-07T00:20:16;2.90;99.90
43810;DHT22;29440;48.208;11.162;2022-12-07T00:22:42;2.70;99.90
43810;DHT22;29440;48.208;11.162;2022-12-07T00:25:07;2.90;99.90
43810;DHT22;29440;48.208;11.162;2022-12-07T00:27:33;2.80;99.90
43810;DHT22;29440;48.208;11.162;2022-12-07T00:29:58;2.90;99.90
43810;DHT22;29440;48.208;11.162;2022-12-07T00:32:24;2.90;99.90
43810;DHT22;29440;48.208;11.162;2022-12-07T00:34:50;2.90;99.90
43810;DHT22;29440;48.208;11.162;2022-12-07T00:37:15;2.90;99.90
43810;DHT22;29440;48.208;11.162;2022-12-07T00:39:41;2.90;99.90
43810;DHT22;29440;48.208;11.162;2022-12-07T00:42:07;2.90;99.90
43810;DHT22;29440;48.208;11.162;2022-12-07T00:44:33;2.80;99.90
43810;DHT22;29440;48.208;11.162;2022-12-07T00:46:58;2.80;99.90
43810;DHT22;29440;48.208;11.162;2022-12-07T00:49:24;2.80;99.90
43810;DHT22;29440;48.208;11.162;2022-12-07T00:51:50;2.80;99.90
43810;DHT22;29440;48.208;11.162;2022-12-07T00:54:16;2.80;99.90
43810;DHT22;29440;48.208;11.162;2022-12-07T00:56:41;2.80;99.90
43810;DHT22;29440;48.208;11.162;2022-12-07T00:59:11;2.80;99.90
43810;DHT22;29440;48.208;11.162;2022-12-07T01:01:37;2.80;99.90
43810;DHT22;29440;48.208;11.162;2022-12-07T01:04:03;2.80;99.90
43810;DHT22;29440;48.208;11.162;2022-12-07T01:06:30;2.80;99.90
43810;DHT22;29440;48.208;11.162;2022-12-07T01:08:56;2.70;99.90
43810;DHT22;29440;48.208;11.162;2022-12-07T01:11:24;2.80;99.90
43810;DHT22;29440;48.208;11.162;2022-12-07T01:13:51;2.90;99.90
43810;DHT22;29440;48.208;11.162;2022-12-07T01:16:18;2.80;99.90
43810;DHT22;29440;48.208;11.162;2022-12-07T01:18:47;2.70;99.90
43810;DHT22;29440;48.208;11.162;2022-12-07T01:21:16;2.80;99.90
43810;DHT22;29440;48.208;11.162;2022-12-07T01:23:43;2.70;99.90
43810;DHT22;29440;48.208;11.162;2022-12-07T01:26:14;2.70;99.90
43810;DHT22;29440;48.208;11.162;2022-12-07T01:28:40;2.70;99.90
43810;DHT22;29440;48.208;11.162;2022-12-07T01:31:09;2.70;99.90
43810;DHT22;29440;48.208;11.162;2022-12-07T01:33:37;2.70;99.90
43810;DHT22;29440;48.208;11.162;2022-12-07T01:38:33;2.70;99.90
43810;DHT22;29440;48.208;11.162;2022-12-07T01:41:00;2.70;99.90
43810;DHT22;29440;48.208;11.162;2022-12-07T01:43:28;2.70;99.90
43810;DHT22;29440;48.208;11.162;2022-12-07T01:45:54;2.70;99.90
43810;DHT22;29440;48.208;11.162;2022-12-07T01:48:36;2.70;99.90
43810;DHT22;29440;48.208;11.162;2022-12-07T01:51:06;2.70;99.90
43810;DHT22;29440;48.208;11.162;2022-12-07T01:53:36;2.70;99.90
43810;DHT22;29440;48.208;11.162;2022-12-07T01:56:03;2.70;99.90
43810;DHT22;29440;48.208;11.162;2022-12-07T01:58:31;2.70;99.90
43810;DHT22;29440;48.208;11.162;2022-12-07T02:00:56;2.70;99.90
43810;DHT22;29440;48.208;11.162;2022-12-07T02:03:32;2.70;99.90
43810;DHT22;29440;48.208;11.162;2022-12-07T02:06:03;2.70;99.90
43810;DHT22;29440;48.208;11.162;2022-12-07T02:08:30;2.60;99.90
43810;DHT22;29440;48.208;11.162;2022-12-07T02:10:56;2.60;99.90
43810;DHT22;29440;48.208;11.162;2022-12-07T02:13:25;2.60;99.90
43810;DHT22;29440;48.208;11.162;2022-12-07T02:29:29;2.60;99.90
43810;DHT22;29440;48.208;11.162;2022-12-07T02:32:25;2.60;99.90
43810;DHT22;29440;48.208;11.162;2022-12-07T02:37:50;2.60;99.90
43810;DHT22;29440;48.208;11.162;2022-12-07T02:42:42;2.60;99.90
43810;DHT22;29440;48.208;11.162;2022-12-07T02:45:12;2.60;99.90
43810;DHT22;29440;48.208;11.162;2022-12-07T02:47:39;2.60;99.90
43810;DHT22;29440;48.208;11.162;2022-12-07T02:50:07;2.60;99.90
43810;DHT22;29440;48.208;11.162;2022-12-07T02:52:33;2.60;99.90
43810;DHT22;29440;48.208;11.162;2022-12-07T02:54:58;2.60;99.90
43810;DHT22;29440;48.208;11.162;2022-12-07T02:57:59;2.50;99.90
43810;DHT22;29440;48.208;11.162;2022-12-07T03:00:26;2.50;99.90
43810;DHT22;29440;48.208;11.162;2022-12-07T03:03:06;2.50;99.90
43810;DHT22;29440;48.208;11.162;2022-12-07T03:11:31;2.50;99.90
43810;DHT22;29440;48.208;11.162;2022-12-07T03:16:33;2.50;99.90
43810;DHT22;29440;48.208;11.162;2022-12-07T03:19:07;2.50;99.90
43810;DHT22;29440;48.208;11.162;2022-12-07T03:21:37;2.60;99.90
43810;DHT22;29440;48.208;11.162;2022-12-07T03:24:09;2.60;99.90
43810;DHT22;29440;48.208;11.162;2022-12-07T03:26:40;2.60;99.90
43810;DHT22;29440;48.208;11.162;2022-12-07T03:29:23;2.60;99.90
43810;DHT22;29440;48.208;11.162;2022-12-07T03:32:04;2.60;99.90
43810;DHT22;29440;48.208;11.162;2022-12-07T03:34:36;2.60;99.90
43810;DHT22;29440;48.208;11.162;2022-12-07T03:37:14;2.50;99.90
43810;DHT22;29440;48.208;11.162;2022-12-07T03:39:52;2.50;99.90
43810;DHT22;29440;48.208;11.162;2022-12-07T03:42:19;2.50;99.90
43810;DHT22;29440;48.208;11.162;2022-12-07T03:44:44;2.50;99.90
43810;DHT22;29440;48.208;11.162;2022-12-07T03:47:33;2.50;99.90
43810;DHT22;29440;48.208;11.162;2022-12-07T03:50:09;2.50;99.90
43810;DHT22;29440;48.208;11.162;2022-12-07T03:52:53;2.50;99.90
43810;DHT22;29440;48.208;11.162;2022-12-07T03:55:26;2.50;99.90
43810;DHT22;29440;48.208;11.162;2022-12-07T03:57:56;2.50;99.90
43810;DHT22;29440;48.208;11.162;2022-12-07T04:00:23;2.50;99.90
43810;DHT22;29440;48.208;11.162;2022-12-07T04:02:52;2.50;99.90
43810;DHT22;29440;48.208;11.162;2022-12-07T04:05:18;2.50;99.90
43810;DHT22;29440;48.208;11.162;2022-12-07T04:07:44;2.50;99.90
43810;DHT22;29440;48.208;11.162;2022-12-07T04:10:10;2.50;99.90
43810;DHT22;29440;48.208;11.162;2022-12-07T04:12:36;2.50;99.90
43810;DHT22;29440;48.208;11.162;2022-12-07T04:15:02;2.50;99.90
43810;DHT22;29440;48.208;11.162;2022-12-07T04:17:28;2.50;99.90
43810;DHT22;29440;48.208;11.162;2022-12-07T04:19:54;2.50;99.90
43810;DHT22;29440;48.208;11.162;2022-12-07T04:22:19;2.50;99.90
43810;DHT22;29440;48.208;11.162;2022-12-07T04:24:46;2.50;99.90
43810;DHT22;29440;48.208;11.162;2022-12-07T04:27:11;2.50;99.90
43810;DHT22;29440;48.208;11.162;2022-12-07T04:29:38;2.50;99.90
43810;DHT22;29440;48.208;11.162;2022-12-07T04:32:04;2.50;99.90
43810;DHT22;29440;48.208;11.162;2022-12-07T04:34:29;2.50;99.90
43810;DHT22;29440;48.208;11.162;2022-12-07T04:36:55;2.50;99.90
43810;DHT22;29440;48.208;11.162;2022-12-07T04:39:30;2.50;99.90
43810;DHT22;29440;48.208;11.162;2022-12-07T04:41:56;2.50;99.90
43810;DHT22;29440;48.208;11.162;2022-12-07T04:44:23;2.50;99.90
43810;DHT22;29440;48.208;11.162;2022-12-07T04:46:49;2.50;99.90
43810;DHT22;29440;48.208;11.162;2022-12-07T04:49:15;2.50;99.90
43810;DHT22;29440;48.208;11.162;2022-12-07T04:51:42;2.40;99.90
43810;DHT22;29440;48.208;11.162;2022-12-07T04:54:08;2.40;99.90
43810;DHT22;29440;48.208;11.162;2022-12-07T04:56:34;2.50;99.90
43810;DHT22;29440;48.208;11.162;2022-12-07T04:59:01;2.40;99.90
43810;DHT22;29440;48.208;11.162;2022-12-07T05:01:26;2.40;99.90
43810;DHT22;29440;48.208;11.162;2022-12-07T05:03:52;2.40;99.90
43810;DHT22;29440;48.208;11.162;2022-12-07T05:06:18;2.40;99.90
43810;DHT22;29440;48.208;11.162;2022-12-07T05:08:44;2.40;99.90
43810;DHT22;29440;48.208;11.162;2022-12-07T05:11:10;2.40;99.90
43810;DHT22;29440;48.208;11.162;2022-12-07T05:13:59;2.30;99.90
43810;DHT22;29440;48.208;11.162;2022-12-07T05:16:25;2.30;99.90
43810;DHT22;29440;48.208;11.162;2022-12-07T05:18:50;2.40;99.90
43810;DHT22;29440;48.208;11.162;2022-12-07T05:21:16;2.30;99.90
43810;DHT22;29440;48.208;11.162;2022-12-07T05:23:42;2.30;99.90
43810;DHT22;29440;48.208;11.162;2022-12-07T05:26:07;2.30;99.90
43810;DHT22;29440;48.208;11.162;2022-12-07T05:28:33;2.20;99.90
43810;DHT22;29440;48.208;11.162;2022-12-07T05:30:59;2.20;99.90
43810;DHT22;29440;48.208;11.162;2022-12-07T05:33:25;2.30;99.90
43810;DHT22;29440;48.208;11.162;2022-12-07T05:35:50;2.20;99.90
43810;DHT22;29440;48.208;11.162;2022-12-07T05:38:16;2.20;99.90
43810;DHT22;29440;48.208;11.162;2022-12-07T05:40:42;2.20;99.90
43810;DHT22;29440;48.208;11.162;2022-12-07T05:43:07;2.20;99.90
43810;DHT22;29440;48.208;11.162;2022-12-07T05:45:33;2.20;99.90
43810;DHT22;29440;48.208;11.162;2022-12-07T05:47:59;2.20;99.90
43810;DHT22;29440;48.208;11.162;2022-12-07T05:50:24;2.30;99.90
43810;DHT22;29440;48.208;11.162;2022-12-07T05:52:50;2.30;99.90
43810;DHT22;29440;48.208;11.162;2022-12-07T05:55:15;2.20;99.90
43810;DHT22;29440;48.208;11.162;2022-12-07T05:57:42;2.20;99.90
43810;DHT22;29440;48.208;11.162;2022-12-07T06:00:27;2.20;99.90
43810;DHT22;29440;48.208;11.162;2022-12-07T06:02:53;2.20;99.90
43810;DHT22;29440;48.208;11.162;2022-12-07T06:05:18;2.20;99.90
43810;DHT22;29440;48.208;11.162;2022-12-07T06:07:44;2.20;99.90
43810;DHT22;29440;48.208;11.162;2022-12-07T06:10:10;2.20;99.90
43810;DHT22;29440;48.208;11.162;2022-12-07T06:12:35;2.20;99.90
43810;DHT22;29440;48.208;11.162;2022-12-07T06:15:04;2.20;99.90
43810;DHT22;29440;48.208;11.162;2022-12-07T06:17:29;2.20;99.90
43810;DHT22;29440;48.208;11.162;2022-12-07T06:19:55;2.20;99.90
43810;DHT22;29440;48.208;11.162;2022-12-07T06:22:20;2.10;99.90
43810;DHT22;29440;48.208;11.162;2022-12-07T06:24:46;2.20;99.90
43810;DHT22;29440;48.208;11.162;2022-12-07T06:27:12;2.10;99.90
43810;DHT22;29440;48.208;11.162;2022-12-07T06:29:37;2.30;99.90
43810;DHT22;29440;48.208;11.162;2022-12-07T06:32:03;2.10;99.90
43810;DHT22;29440;48.208;11.162;2022-12-07T06:34:30;2.20;99.90
43810;DHT22;29440;48.208;11.162;2022-12-07T06:36:55;2.10;99.90
43810;DHT22;29440;48.208;11.162;2022-12-07T06:39:23;2.20;99.90
43810;DHT22;29440;48.208;11.162;2022-12-07T06:41:50;2.10;99.90
43810;DHT22;29440;48.208;11.162;2022-12-07T06:44:17;2.10;99.90
43810;DHT22;29440;48.208;11.162;2022-12-07T06:46:43;2.10;99.90
43810;DHT22;29440;48.208;11.162;2022-12-07T06:49:09;2.10;99.90
43810;DHT22;29440;48.208;11.162;2022-12-07T06:51:34;2.10;99.90
43810;DHT22;29440;48.208;11.162;2022-12-07T06:54:02;2.10;99.90
43810;DHT22;29440;48.208;11.162;2022-12-07T06:56:29;2.10;99.90
43810;DHT22;29440;48.208;11.162;2022-12-07T06:58:54;2.10;99.90
43810;DHT22;29440;48.208;11.162;2022-12-07T07:01:20;2.10;99.90
43810;DHT22;29440;48.208;11.162;2022-12-07T07:03:46;2.10;99.90
43810;DHT22;29440;48.208;11.162;2022-12-07T07:06:13;2.10;99.90
43810;DHT22;29440;48.208;11.162;2022-12-07T07:08:39;2.10;99.90
43810;DHT22;29440;48.208;11.162;2022-12-07T07:11:07;2.10;99.90
43810;DHT22;29440;48.208;11.162;2022-12-07T07:13:33;2.10;99.90
43810;DHT22;29440;48.208;11.162;2022-12-07T07:15:59;2.10;99.90
43810;DHT22;29440;48.208;11.162;2022-12-07T07:18:25;2.10;99.90
43810;DHT22;29440;48.208;11.162;2022-12-07T07:20:53;2.00;99.90
43810;DHT22;29440;48.208;11.162;2022-12-07T07:23:20;2.10;99.90
43810;DHT22;29440;48.208;11.162;2022-12-07T07:25:47;2.00;99.90
43810;DHT22;29440;48.208;11.162;2022-12-07T07:28:14;2.10;99.90
43810;DHT22;29440;48.208;11.162;2022-12-07T07:30:39;2.00;99.90
43810;DHT22;29440;48.208;11.162;2022-12-07T07:33:05;2.00;99.90
43810;DHT22;29440;48.208;11.162;2022-12-07T07:35:32;2.10;99.90
43810;DHT22;29440;48.208;11.162;2022-12-07T07:37:59;2.00;99.90
43810;DHT22;29440;48.208;11.162;2022-12-07T07:40:25;2.00;99.90
43810;DHT22;29440;48.208;11.162;2022-12-07T07:42:52;2.10;99.90
43810;DHT22;29440;48.208;11.162;2022-12-07T07:45:22;2.10;99.90
43810;DHT22;29440;48.208;11.162;2022-12-07T07:47:47;2.10;99.90
43810;DHT22;29440;48.208;11.162;2022-12-07T07:50:13;2.10;99.90
43810;DHT22;29440;48.208;11.162;2022-12-07T07:52:39;2.10;99.90
43810;DHT22;29440;48.208;11.162;2022-12-07T07:55:06;2.10;99.90
43810;DHT22;29440;48.208;11.162;2022-12-07T07:57:34;2.10;99.90
43810;DHT22;29440;48.208;11.162;2022-12-07T08:00:00;2.10;99.90
43810;DHT22;29440;48.208;11.162;2022-12-07T08:02:26;2.10;99.90
43810;DHT22;29440;48.208;11.162;2022-12-07T08:04:54;2.10;99.90
43810;DHT22;29440;48.208;11.162;2022-12-07T08:07:20;2.10;99.90
43810;DHT22;29440;48.208;11.162;2022-12-07T08:09:46;2.10;99.90
43810;DHT22;29440;48.208;11.162;2022-12-07T08:12:12;2.20;99.90
43810;DHT22;29440;48.208;11.162;2022-12-07T08:14:38;2.20;99.90
43810;DHT22;29440;48.208;11.162;2022-12-07T08:17:03;2.20;99.90
43810;DHT22;29440;48.208;11.162;2022-12-07T08:19:29;2.20;99.90
43810;DHT22;29440;48.208;11.162;2022-12-07T08:21:55;2.20;99.90
43810;DHT22;29440;48.208;11.162;2022-12-07T08:24:22;2.30;99.90
43810;DHT22;29440;48.208;11.162;2022-12-07T08:26:47;2.30;99.90
43810;DHT22;29440;48.208;11.162;2022-12-07T08:29:13;2.30;99.90
43810;DHT22;29440;48.208;11.162;2022-12-07T08:31:39;2.30;99.90
43810;DHT22;29440;48.208;11.162;2022-12-07T08:34:05;2.40;99.90
43810;DHT22;29440;48.208;11.162;2022-12-07T08:36:30;2.40;99.90
43810;DHT22;29440;48.208;11.162;2022-12-07T08:38:56;2.40;99.90
43810;DHT22;29440;48.208;11.162;2022-12-07T08:41:22;2.50;99.90
43810;DHT22;29440;48.208;11.162;2022-12-07T08:43:47;2.50;99.90
43810;DHT22;29440;48.208;11.162;2022-12-07T08:46:45;2.50;99.90
43810;DHT22;29440;48.208;11.162;2022-12-07T08:49:18;2.50;99.90
43810;DHT22;29440;48.208;11.162;2022-12-07T08:51:44;2.60;99.90
43810;DHT22;29440;48.208;11.162;2022-12-07T08:54:13;2.60;99.90
43810;DHT22;29440;48.208;11.162;2022-12-07T08:56:39;2.60;99.90
43810;DHT22;29440;48.208;11.162;2022-12-07T08:59:06;2.60;99.90
43810;DHT22;29440;48.208;11.162;2022-12-07T09:01:32;2.70;99.90
43810;DHT22;29440;48.208;11.162;2022-12-07T09:03:58;2.70;99.90
43810;DHT22;29440;48.208;11.162;2022-12-07T09:06:24;2.70;99.90
43810;DHT22;29440;48.208;11.162;2022-12-07T09:08:52;2.80;99.90
43810;DHT22;29440;48.208;11.162;2022-12-07T09:11:20;2.80;99.90
43810;DHT22;29440;48.208;11.162;2022-12-07T09:13:46;2.80;99.90
43810;DHT22;29440;48.208;11.162;2022-12-07T09:16:12;2.90;99.90
43810;DHT22;29440;48.208;11.162;2022-12-07T09:18:38;2.90;99.90
43810;DHT22;29440;48.208;11.162;2022-12-07T09:21:04;3.00;99.90
43810;DHT22;29440;48.208;11.162;2022-12-07T09:23:30;3.10;99.90
43810;DHT22;29440;48.208;11.162;2022-12-07T09:25:59;3.20;99.90
43810;DHT22;29440;48.208;11.162;2022-12-07T09:28:25;3.20;99.90
43810;DHT22;29440;48.208;11.162;2022-12-07T09:30:51;3.30;99.90
43810;DHT22;29440;48.208;11.162;2022-12-07T09:33:16;3.40;99.90
43810;DHT22;29440;48.208;11.162;2022-12-07T09:35:49;3.40;99.90
43810;DHT22;29440;48.208;11.162;2022-12-07T09:38:16;3.50;99.90
43810;DHT22;29440;48.208;11.162;2022-12-07T09:40:42;3.60;99.90
43810;DHT22;29440;48.208;11.162;2022-12-07T09:43:20;3.60;99.90
43810;DHT22;29440;48.208;11.162;2022-12-07T09:45:48;3.70;99.90
43810;DHT22;29440;48.208;11.162;2022-12-07T09:48:18;3.80;99.90
43810;DHT22;29440;48.208;11.162;2022-12-07T09:50:45;3.80;99.90
43810;DHT22;29440;48.208;11.162;2022-12-07T09:53:24;3.90;99.90
43810;DHT22;29440;48.208;11.162;2022-12-07T09:55:50;3.90;99.90
43810;DHT22;29440;48.208;11.162;2022-12-07T09:58:27;4.00;99.90
43810;DHT22;29440;48.208;11.162;2022-12-07T10:00:59;4.00;99.90
43810;DHT22;29440;48.208;11.162;2022-12-07T10:03:27;4.00;99.90
43810;DHT22;29440;48.208;11.162;2022-12-07T10:05:53;4.10;99.90
43810;DHT22;29440;48.208;11.162;2022-12-07T10:08:19;4.20;99.90
43810;DHT22;29440;48.208;11.162;2022-12-07T10:10:52;4.30;99.90
43810;DHT22;29440;48.208;11.162;2022-12-07T10:13:33;4.30;99.90
43810;DHT22;29440;48.208;11.162;2022-12-07T10:15:59;4.30;99.90
43810;DHT22;29440;48.208;11.162;2022-12-07T10:18:37;4.40;99.90
43810;DHT22;29440;48.208;11.162;2022-12-07T10:21:17;4.50;99.90
43810;DHT22;29440;48.208;11.162;2022-12-07T10:24:19;4.60;99.90
43810;DHT22;29440;48.208;11.162;2022-12-07T10:26:51;4.80;99.90
43810;DHT22;29440;48.208;11.162;2022-12-07T10:29:33;4.90;99.90
43810;DHT22;29440;48.208;11.162;2022-12-07T10:34:52;5.00;99.90
43810;DHT22;29440;48.208;11.162;2022-12-07T10:37:40;4.90;99.90
43810;DHT22;29440;48.208;11.162;2022-12-07T10:40:25;5.00;99.90
43810;DHT22;29440;48.208;11.162;2022-12-07T11:00:25;5.20;99.90
43810;DHT22;29440;48.208;11.162;2022-12-07T11:03:16;5.20;99.90
43810;DHT22;29440;48.208;11.162;2022-12-07T11:05:56;5.30;99.90
43810;DHT22;29440;48.208;11.162;2022-12-07T11:08:49;5.40;99.90
43810;DHT22;29440;48.208;11.162;2022-12-07T11:14:16;5.50;99.90
43810;DHT22;29440;48.208;11.162;2022-12-07T11:18:07;5.50;99.90
43810;DHT22;29440;48.208;11.162;2022-12-07T11:26:01;5.80;99.90
43810;DHT22;29440;48.208;11.162;2022-12-07T11:31:38;5.90;99.90
43810;DHT22;29440;48.208;11.162;2022-12-07T11:34:15;6.00;99.90
43810;DHT22;29440;48.208;11.162;2022-12-07T11:36:47;6.00;99.90
43810;DHT22;29440;48.208;11.162;2022-12-07T11:39:28;5.90;99.90
43810;DHT22;29440;48.208;11.162;2022-12-07T11:42:10;5.80;99.90
43810;DHT22;29440;48.208;11.162;2022-12-07T11:44:50;5.80;99.90
43810;DHT22;29440;48.208;11.162;2022-12-07T11:52:52;5.50;99.90
43810;DHT22;29440;48.208;11.162;2022-12-07T12:00:41;5.40;99.90
43810;DHT22;29440;48.208;11.162;2022-12-07T12:03:14;5.30;99.90
43810;DHT22;29440;48.208;11.162;2022-12-07T12:05:40;5.30;99.90
43810;DHT22;29440;48.208;11.162;2022-12-07T12:08:23;5.30;99.90
43810;DHT22;29440;48.208;11.162;2022-12-07T12:22:18;5.30;99.90
43810;DHT22;29440;48.208;11.162;2022-12-07T12:24:48;5.30;99.90
43810;DHT22;29440;48.208;11.162;2022-12-07T12:27:32;5.30;99.90
43810;DHT22;29440;48.208;11.162;2022-12-07T12:30:00;5.40;99.90
43810;DHT22;29440;48.208;11.162;2022-12-07T12:32:38;5.30;99.90
43810;DHT22;29440;48.208;11.162;2022-12-07T12:35:30;5.40;99.90
43810;DHT22;29440;48.208;11.162;2022-12-07T12:40:50;5.60;99.90
43810;DHT22;29440;48.208;11.162;2022-12-07T12:43:48;5.70;99.90
43810;DHT22;29440;48.208;11.162;2022-12-07T12:51:45;6.20;99.90
43810;DHT22;29440;48.208;11.162;2022-12-07T12:54:19;6.40;99.90
43810;DHT22;29440;48.208;11.162;2022-12-07T12:59:34;6.20;99.90
43810;DHT22;29440;48.208;11.162;2022-12-07T13:13:04;6.00;99.90
43810;DHT22;29440;48.208;11.162;2022-12-07T13:15:49;6.00;99.90
43810;DHT22;29440;48.208;11.162;2022-12-07T13:31:36;5.80;99.90
43810;DHT22;29440;48.208;11.162;2022-12-07T13:34:04;5.80;99.90
43810;DHT22;29440;48.208;11.162;2022-12-07T13:36:37;5.80;99.90
43810;DHT22;29440;48.208;11.162;2022-12-07T13:39:24;5.80;99.90
43810;DHT22;29440;48.208;11.162;2022-12-07T13:41:58;5.90;99.90
43810;DHT22;29440;48.208;11.162;2022-12-07T13:44:28;5.80;99.90
43810;DHT22;29440;48.208;11.162;2022-12-07T13:49:49;5.80;99.90
43810;DHT22;29440;48.208;11.162;2022-12-07T13:52:16;5.80;99.90
43810;DHT22;29440;48.208;11.162;2022-12-07T13:57:32;5.80;99.90
43810;DHT22;29440;48.208;11.162;2022-12-07T14:00:14;5.80;99.90
43810;DHT22;29440;48.208;11.162;2022-12-07T14:05:27;5.50;99.90
43810;DHT22;29440;48.208;11.162;2022-12-07T14:10:27;5.30;99.90
43810;DHT22;29440;48.208;11.162;2022-12-07T14:12:53;5.20;99.90
43810;DHT22;29440;48.208;11.162;2022-12-07T14:15:22;5.20;99.90
43810;DHT22;29440;48.208;11.162;2022-12-07T14:17:53;5.10;99.90
43810;DHT22;29440;48.208;11.162;2022-12-07T14:20:32;5.10;99.90
43810;DHT22;29440;48.208;11.162;2022-12-07T14:22:58;5.10;99.90
43810;DHT22;29440;48.208;11.162;2022-12-07T14:25:27;5.10;99.90
43810;DHT22;29440;48.208;11.162;2022-12-07T14:27:58;5.10;99.90
43810;DHT22;29440;48.208;11.162;2022-12-07T14:30:27;5.00;99.90
43810;DHT22;29440;48.208;11.162;2022-12-07T14:33:04;4.90;99.90
43810;DHT22;29440;48.208;11.162;2022-12-07T14:35:31;4.80;99.90
43810;DHT22;29440;48.208;11.162;2022-12-07T14:37:57;4.80;99.90
43810;DHT22;29440;48.208;11.162;2022-12-07T14:40:25;4.70;99.90
43810;DHT22;29440;48.208;11.162;2022-12-07T14:43:02;4.70;99.90
43810;DHT22;29440;48.208;11.162;2022-12-07T14:45:29;4.70;99.90
43810;DHT22;29440;48.208;11.162;2022-12-07T14:47:54;4.70;99.90
43810;DHT22;29440;48.208;11.162;2022-12-07T14:50:21;4.70;99.90
43810;DHT22;29440;48.208;11.162;2022-12-07T14:52:50;4.60;99.90
43810;DHT22;29440;48.208;11.162;2022-12-07T14:55:24;4.60;99.90
43810;DHT22;29440;48.208;11.162;2022-12-07T14:57:50;4.60;99.90
43810;DHT22;29440;48.208;11.162;2022-12-07T15:00:17;4.60;99.90
43810;DHT22;29440;48.208;11.162;2022-12-07T15:02:44;4.60;99.90
43810;DHT22;29440;48.208;11.162;2022-12-07T15:05:10;4.70;99.90
43810;DHT22;29440;48.208;11.162;2022-12-07T15:07:35;4.60;99.90
43810;DHT22;29440;48.208;11.162;2022-12-07T15:10:01;4.60;99.90
43810;DHT22;29440;48.208;11.162;2022-12-07T15:12:27;4.50;99.90
43810;DHT22;29440;48.208;11.162;2022-12-07T15:14:52;4.50;99.90
43810;DHT22;29440;48.208;11.162;2022-12-07T15:17:18;4.50;99.90
43810;DHT22;29440;48.208;11.162;2022-12-07T15:19:43;4.50;99.90
43810;DHT22;29440;48.208;11.162;2022-12-07T15:22:09;4.50;99.90
43810;DHT22;29440;48.208;11.162;2022-12-07T15:24:36;4.50;99.90
43810;DHT22;29440;48.208;11.162;2022-12-07T15:27:02;4.40;99.90
43810;DHT22;29440;48.208;11.162;2022-12-07T15:29:27;4.40;99.90
43810;DHT22;29440;48.208;11.162;2022-12-07T15:31:53;4.40;99.90
43810;DHT22;29440;48.208;11.162;2022-12-07T15:34:19;4.40;99.90
43810;DHT22;29440;48.208;11.162;2022-12-07T15:36:44;4.30;99.90
43810;DHT22;29440;48.208;11.162;2022-12-07T15:39:10;4.30;99.90
43810;DHT22;29440;48.208;11.162;2022-12-07T15:41:36;4.30;99.90
43810;DHT22;29440;48.208;11.162;2022-12-07T15:44:02;4.20;99.90
43810;DHT22;29440;48.208;11.162;2022-12-07T15:46:54;4.40;99.90
43810;DHT22;29440;48.208;11.162;2022-12-07T15:49:20;4.20;99.90
43810;DHT22;29440;48.208;11.162;2022-12-07T15:51:45;4.20;99.90
43810;DHT22;29440;48.208;11.162;2022-12-07T15:54:23;4.10;99.90
43810;DHT22;29440;48.208;11.162;2022-12-07T15:56:49;4.10;99.90
43810;DHT22;29440;48.208;11.162;2022-12-07T15:59:15;4.00;99.90
43810;DHT22;29440;48.208;11.162;2022-12-07T16:01:41;3.90;99.90
43810;DHT22;29440;48.208;11.162;2022-12-07T16:04:07;3.90;99.90
43810;DHT22;29440;48.208;11.162;2022-12-07T16:06:33;3.90;99.90
43810;DHT22;29440;48.208;11.162;2022-12-07T16:09:15;3.90;99.90
43810;DHT22;29440;48.208;11.162;2022-12-07T16:11:41;3.80;99.90
43810;DHT22;29440;48.208;11.162;2022-12-07T16:14:07;3.80;99.90
43810;DHT22;29440;48.208;11.162;2022-12-07T16:16:32;3.70;99.90
43810;DHT22;29440;48.208;11.162;2022-12-07T16:18:58;3.70;99.90
43810;DHT22;29440;48.208;11.162;2022-12-07T16:21:24;3.70;99.90
43810;DHT22;29440;48.208;11.162;2022-12-07T16:23:49;3.70;99.90
43810;DHT22;29440;48.208;11.162;2022-12-07T16:26:17;3.60;99.90
43810;DHT22;29440;48.208;11.162;2022-12-07T16:28:43;3.60;99.90
43810;DHT22;29440;48.208;11.162;2022-12-07T16:31:14;3.60;99.90
43810;DHT22;29440;48.208;11.162;2022-12-07T16:33:41;3.50;99.90
43810;DHT22;29440;48.208;11.162;2022-12-07T16:36:09;3.50;99.90
43810;DHT22;29440;48.208;11.162;2022-12-07T16:38:35;3.50;99.90
43810;DHT22;29440;48.208;11.162;2022-12-07T16:41:01;3.50;99.90
43810;DHT22;29440;48.208;11.162;2022-12-07T16:43:27;3.40;99.90
43810;DHT22;29440;48.208;11.162;2022-12-07T16:45:52;3.40;99.90
43810;DHT22;29440;48.208;11.162;2022-12-07T16:48:18;3.30;99.90
43810;DHT22;29440;48.208;11.162;2022-12-07T16:50:44;3.30;99.90
43810;DHT22;29440;48.208;11.162;2022-12-07T16:53:11;3.20;99.90
43810;DHT22;29440;48.208;11.162;2022-12-07T16:55:38;3.20;99.90
43810;DHT22;29440;48.208;11.162;2022-12-07T16:58:04;3.10;99.90
43810;DHT22;29440;48.208;11.162;2022-12-07T17:00:30;3.10;99.90
43810;DHT22;29440;48.208;11.162;2022-12-07T17:02:55;3.10;99.90
43810;DHT22;29440;48.208;11.162;2022-12-07T17:05:21;3.00;99.90
43810;DHT22;29440;48.208;11.162;2022-12-07T17:07:46;3.00;99.90
43810;DHT22;29440;48.208;11.162;2022-12-07T17:10:12;3.00;99.90
43810;DHT22;29440;48.208;11.162;2022-12-07T17:12:37;2.90;99.90
43810;DHT22;29440;48.208;11.162;2022-12-07T17:15:03;2.90;99.90
43810;DHT22;29440;48.208;11.162;2022-12-07T17:17:58;2.80;99.90
43810;DHT22;29440;48.208;11.162;2022-12-07T17:20:26;2.80;99.90
43810;DHT22;29440;48.208;11.162;2022-12-07T17:22:52;2.60;99.90
43810;DHT22;29440;48.208;11.162;2022-12-07T17:25:18;2.50;99.90
43810;DHT22;29440;48.208;11.162;2022-12-07T17:27:44;2.40;99.90
43810;DHT22;29440;48.208;11.162;2022-12-07T17:30:11;2.40;99.90
43810;DHT22;29440;48.208;11.162;2022-12-07T17:32:37;2.30;99.90
43810;DHT22;29440;48.208;11.162;2022-12-07T17:35:04;2.30;99.90
43810;DHT22;29440;48.208;11.162;2022-12-07T17:37:30;2.20;99.90
43810;DHT22;29440;48.208;11.162;2022-12-07T17:39:56;2.20;99.90
43810;DHT22;29440;48.208;11.162;2022-12-07T17:42:24;2.20;99.90
43810;DHT22;29440;48.208;11.162;2022-12-07T17:45:06;2.10;99.90
43810;DHT22;29440;48.208;11.162;2022-12-07T17:47:33;2.10;99.90
43810;DHT22;29440;48.208;11.162;2022-12-07T17:49:59;2.00;99.90
43810;DHT22;29440;48.208;11.162;2022-12-07T17:52:24;2.00;99.90